sensor_id;sensor_type;location;lat;lon;timestamp;P1;durP1;ratioP1;P2;durP2;ratioP2
14516;SDS011;7344;50.864;4.362;2023-04-19T00:00:43;32.67;;;25.70;;
14516;SDS011;7344;50.864;4.362;2023-04-19T00:03:09;35.60;;;26.80;;
14516;SDS011;7344;50.864;4.362;2023-04-19T00:05:35;33.43;;;26.13;;
14516;SDS011;7344;50.864;4.362;2023-04-19T00:08:06;36.70;;;27.60;;
14516;SDS011;7344;50.864;4.362;2023-04-19T00:10:32;33.93;;;25.53;;
14516;SDS011;7344;50.864;4.362;2023-04-19T00:13:02;31.87;;;25.83;;
14516;SDS011;7344;50.864;4.362;2023-04-19T00:15:27;32.53;;;25.53;;
14516;SDS011;7344;50.864;4.362;2023-04-19T00:17:53;33.50;;;26.63;;
14516;SDS011;7344;50.864;4.362;2023-04-19T00:20:19;33.13;;;26.20;;
14516;SDS011;7344;50.864;4.362;2023-04-19T00:22:45;31.97;;;25.80;;
14516;SDS011;7344;50.864;4.362;2023-04-19T00:25:11;36.03;;;26.43;;
14516;SDS011;7344;50.864;4.362;2023-04-19T00:27:37;32.63;;;26.40;;
14516;SDS011;7344;50.864;4.362;2023-04-19T00:30:05;34.93;;;26.47;;
14516;SDS011;7344;50.864;4.362;2023-04-19T00:32:34;37.00;;;25.87;;
14516;SDS011;7344;50.864;4.362;2023-04-19T00:35:00;30.90;;;26.07;;
14516;SDS011;7344;50.864;4.362;2023-04-19T00:37:25;36.07;;;26.90;;
14516;SDS011;7344;50.864;4.362;2023-04-19T00:39:51;31.87;;;23.10;;
14516;SDS011;7344;50.864;4.362;2023-04-19T00:42:16;35.40;;;26.93;;
14516;SDS011;7344;50.864;4.362;2023-04-19T00:44:42;33.53;;;25.93;;
14516;SDS011;7344;50.864;4.362;2023-04-19T00:47:08;35.23;;;27.13;;
14516;SDS011;7344;50.864;4.362;2023-04-19T00:49:37;35.83;;;27.13;;
14516;SDS011;7344;50.864;4.362;2023-04-19T00:52:02;34.07;;;26.97;;
14516;SDS011;7344;50.864;4.362;2023-04-19T00:54:28;36.00;;;28.80;;
14516;SDS011;7344;50.864;4.362;2023-04-19T00:56:54;34.40;;;27.37;;
14516;SDS011;7344;50.864;4.362;2023-04-19T00:59:23;37.07;;;26.97;;
14516;SDS011;7344;50.864;4.362;2023-04-19T01:01:51;37.97;;;27.30;;
14516;SDS011;7344;50.864;4.362;2023-04-19T01:04:17;34.97;;;27.90;;
14516;SDS011;7344;50.864;4.362;2023-04-19T01:06:45;32.73;;;26.30;;
14516;SDS011;7344;50.864;4.362;2023-04-19T01:09:11;32.87;;;26.47;;
14516;SDS011;7344;50.864;4.362;2023-04-19T01:11:36;34.10;;;26.20;;
14516;SDS011;7344;50.864;4.362;2023-04-19T01:14:02;35.67;;;27.27;;
14516;SDS011;7344;50.864;4.362;2023-04-19T01:16:27;36.50;;;27.47;;
14516;SDS011;7344;50.864;4.362;2023-04-19T01:18:53;34.97;;;27.43;;
14516;SDS011;7344;50.864;4.362;2023-04-19T01:21:19;35.70;;;28.20;;
14516;SDS011;7344;50.864;4.362;2023-04-19T01:23:46;32.20;;;25.33;;
14516;SDS011;7344;50.864;4.362;2023-04-19T01:26:12;33.30;;;27.10;;
14516;SDS011;7344;50.864;4.362;2023-04-19T01:28:37;35.63;;;27.37;;
14516;SDS011;7344;50.864;4.362;2023-04-19T01:31:03;35.37;;;28.20;;
14516;SDS011;7344;50.864;4.362;2023-04-19T01:33:28;36.40;;;27.80;;
14516;SDS011;7344;50.864;4.362;2023-04-19T01:35:54;37.43;;;27.20;;
14516;SDS011;7344;50.864;4.362;2023-04-19T01:38:20;37.77;;;27.80;;
14516;SDS011;7344;50.864;4.362;2023-04-19T01:40:45;37.00;;;28.03;;
14516;SDS011;7344;50.864;4.362;2023-04-19T01:43:12;35.37;;;27.90;;
14516;SDS011;7344;50.864;4.362;2023-04-19T01:45:38;33.90;;;24.03;;
14516;SDS011;7344;50.864;4.362;2023-04-19T01:48:04;38.33;;;28.03;;
14516;SDS011;7344;50.864;4.362;2023-04-19T01:50:30;34.70;;;27.00;;
14516;SDS011;7344;50.864;4.362;2023-04-19T01:52:56;33.60;;;26.03;;
14516;SDS011;7344;50.864;4.362;2023-04-19T01:55:22;35.17;;;26.33;;
14516;SDS011;7344;50.864;4.362;2023-04-19T01:57:47;36.30;;;27.77;;
14516;SDS011;7344;50.864;4.362;2023-04-19T02:00:13;35.53;;;27.17;;
14516;SDS011;7344;50.864;4.362;2023-04-19T02:02:39;38.50;;;28.07;;
14516;SDS011;7344;50.864;4.362;2023-04-19T02:05:06;35.70;;;26.90;;
14516;SDS011;7344;50.864;4.362;2023-04-19T02:07:34;38.57;;;29.13;;
14516;SDS011;7344;50.864;4.362;2023-04-19T02:10:00;34.13;;;27.93;;
14516;SDS011;7344;50.864;4.362;2023-04-19T02:12:25;33.67;;;26.77;;
14516;SDS011;7344;50.864;4.362;2023-04-19T02:14:55;35.10;;;25.53;;
14516;SDS011;7344;50.864;4.362;2023-04-19T02:17:21;33.67;;;26.63;;
14516;SDS011;7344;50.864;4.362;2023-04-19T02:19:48;35.67;;;26.90;;
14516;SDS011;7344;50.864;4.362;2023-04-19T02:22:13;34.23;;;27.67;;
14516;SDS011;7344;50.864;4.362;2023-04-19T02:24:39;33.13;;;26.00;;
14516;SDS011;7344;50.864;4.362;2023-04-19T02:27:04;36.00;;;26.87;;
14516;SDS011;7344;50.864;4.362;2023-04-19T02:29:31;31.33;;;24.40;;
14516;SDS011;7344;50.864;4.362;2023-04-19T02:31:57;33.40;;;26.00;;
14516;SDS011;7344;50.864;4.362;2023-04-19T02:34:22;34.50;;;26.83;;
14516;SDS011;7344;50.864;4.362;2023-04-19T02:36:54;34.90;;;26.53;;
14516;SDS011;7344;50.864;4.362;2023-04-19T02:39:20;33.87;;;27.00;;
14516;SDS011;7344;50.864;4.362;2023-04-19T02:41:45;29.07;;;24.33;;
14516;SDS011;7344;50.864;4.362;2023-04-19T02:44:11;30.33;;;25.23;;
14516;SDS011;7344;50.864;4.362;2023-04-19T02:46:36;32.53;;;26.70;;
14516;SDS011;7344;50.864;4.362;2023-04-19T02:49:02;32.50;;;24.17;;
14516;SDS011;7344;50.864;4.362;2023-04-19T02:51:27;34.30;;;26.13;;
14516;SDS011;7344;50.864;4.362;2023-04-19T02:53:56;30.50;;;23.77;;
14516;SDS011;7344;50.864;4.362;2023-04-19T02:56:21;30.13;;;24.50;;
14516;SDS011;7344;50.864;4.362;2023-04-19T02:58:47;28.83;;;25.03;;
14516;SDS011;7344;50.864;4.362;2023-04-19T03:01:12;29.93;;;24.47;;
14516;SDS011;7344;50.864;4.362;2023-04-19T03:03:38;31.47;;;25.17;;
14516;SDS011;7344;50.864;4.362;2023-04-19T03:06:04;31.03;;;23.50;;
14516;SDS011;7344;50.864;4.362;2023-04-19T03:08:29;29.77;;;24.77;;
14516;SDS011;7344;50.864;4.362;2023-04-19T03:10:58;30.37;;;24.60;;
14516;SDS011;7344;50.864;4.362;2023-04-19T03:13:23;32.73;;;24.80;;
14516;SDS011;7344;50.864;4.362;2023-04-19T03:15:49;31.30;;;25.60;;
14516;SDS011;7344;50.864;4.362;2023-04-19T03:18:15;31.10;;;24.10;;
14516;SDS011;7344;50.864;4.362;2023-04-19T03:20:43;28.27;;;24.37;;
14516;SDS011;7344;50.864;4.362;2023-04-19T03:23:09;28.87;;;22.80;;
14516;SDS011;7344;50.864;4.362;2023-04-19T03:25:34;27.87;;;23.97;;
14516;SDS011;7344;50.864;4.362;2023-04-19T03:28:00;28.43;;;22.67;;
14516;SDS011;7344;50.864;4.362;2023-04-19T03:30:26;28.20;;;22.73;;
14516;SDS011;7344;50.864;4.362;2023-04-19T03:32:51;30.93;;;24.73;;
14516;SDS011;7344;50.864;4.362;2023-04-19T03:35:20;28.77;;;23.07;;
14516;SDS011;7344;50.864;4.362;2023-04-19T03:37:52;27.80;;;20.90;;
14516;SDS011;7344;50.864;4.362;2023-04-19T03:40:18;29.60;;;24.13;;
14516;SDS011;7344;50.864;4.362;2023-04-19T03:42:44;29.07;;;23.80;;
14516;SDS011;7344;50.864;4.362;2023-04-19T03:45:09;29.37;;;24.00;;
14516;SDS011;7344;50.864;4.362;2023-04-19T03:47:35;30.20;;;23.30;;
14516;SDS011;7344;50.864;4.362;2023-04-19T03:50:01;28.97;;;22.93;;
14516;SDS011;7344;50.864;4.362;2023-04-19T03:52:30;31.63;;;23.07;;
14516;SDS011;7344;50.864;4.362;2023-04-19T03:54:55;32.20;;;24.97;;
14516;SDS011;7344;50.864;4.362;2023-04-19T03:57:21;31.87;;;24.23;;
14516;SDS011;7344;50.864;4.362;2023-04-19T03:59:46;29.50;;;23.73;;
14516;SDS011;7344;50.864;4.362;2023-04-19T04:02:15;31.50;;;24.67;;
14516;SDS011;7344;50.864;4.362;2023-04-19T04:04:41;28.90;;;23.00;;
14516;SDS011;7344;50.864;4.362;2023-04-19T04:07:06;30.87;;;22.97;;
14516;SDS011;7344;50.864;4.362;2023-04-19T04:09:32;31.77;;;24.43;;
14516;SDS011;7344;50.864;4.362;2023-04-19T04:11:57;31.47;;;23.97;;
14516;SDS011;7344;50.864;4.362;2023-04-19T04:14:23;27.83;;;23.13;;
14516;SDS011;7344;50.864;4.362;2023-04-19T04:16:49;28.60;;;23.50;;
14516;SDS011;7344;50.864;4.362;2023-04-19T04:19:14;29.83;;;22.93;;
14516;SDS011;7344;50.864;4.362;2023-04-19T04:21:40;28.50;;;22.93;;
14516;SDS011;7344;50.864;4.362;2023-04-19T04:24:06;32.13;;;24.53;;
14516;SDS011;7344;50.864;4.362;2023-04-19T04:26:32;30.83;;;23.53;;
14516;SDS011;7344;50.864;4.362;2023-04-19T04:29:03;29.30;;;22.93;;
14516;SDS011;7344;50.864;4.362;2023-04-19T04:31:29;31.77;;;23.33;;
14516;SDS011;7344;50.864;4.362;2023-04-19T04:33:55;33.67;;;24.63;;
14516;SDS011;7344;50.864;4.362;2023-04-19T04:36:24;32.33;;;25.23;;
14516;SDS011;7344;50.864;4.362;2023-04-19T04:38:53;31.67;;;23.97;;
14516;SDS011;7344;50.864;4.362;2023-04-19T04:41:19;34.90;;;24.33;;
14516;SDS011;7344;50.864;4.362;2023-04-19T04:43:45;31.27;;;24.07;;
14516;SDS011;7344;50.864;4.362;2023-04-19T04:46:13;35.43;;;24.93;;
14516;SDS011;7344;50.864;4.362;2023-04-19T04:48:39;34.20;;;24.80;;
14516;SDS011;7344;50.864;4.362;2023-04-19T04:51:04;31.33;;;25.17;;
14516;SDS011;7344;50.864;4.362;2023-04-19T04:53:30;31.70;;;23.87;;
14516;SDS011;7344;50.864;4.362;2023-04-19T04:55:56;31.10;;;23.90;;
14516;SDS011;7344;50.864;4.362;2023-04-19T04:58:21;34.43;;;23.97;;
14516;SDS011;7344;50.864;4.362;2023-04-19T05:00:47;32.27;;;24.13;;
14516;SDS011;7344;50.864;4.362;2023-04-19T05:03:21;31.40;;;23.97;;
14516;SDS011;7344;50.864;4.362;2023-04-19T05:05:47;33.33;;;23.40;;
14516;SDS011;7344;50.864;4.362;2023-04-19T05:08:13;33.03;;;24.23;;
14516;SDS011;7344;50.864;4.362;2023-04-19T05:10:38;31.13;;;23.47;;
14516;SDS011;7344;50.864;4.362;2023-04-19T05:13:04;28.03;;;21.67;;
14516;SDS011;7344;50.864;4.362;2023-04-19T05:15:30;32.87;;;23.30;;
14516;SDS011;7344;50.864;4.362;2023-04-19T05:17:58;31.20;;;22.70;;
14516;SDS011;7344;50.864;4.362;2023-04-19T05:20:24;28.53;;;22.70;;
14516;SDS011;7344;50.864;4.362;2023-04-19T05:23:00;27.13;;;22.37;;
14516;SDS011;7344;50.864;4.362;2023-04-19T05:25:27;31.33;;;22.73;;
14516;SDS011;7344;50.864;4.362;2023-04-19T05:27:53;32.43;;;23.07;;
14516;SDS011;7344;50.864;4.362;2023-04-19T05:30:19;31.87;;;22.97;;
14516;SDS011;7344;50.864;4.362;2023-04-19T05:32:45;29.30;;;22.97;;
14516;SDS011;7344;50.864;4.362;2023-04-19T05:35:11;27.70;;;22.07;;
14516;SDS011;7344;50.864;4.362;2023-04-19T05:37:37;23.87;;;18.67;;
14516;SDS011;7344;50.864;4.362;2023-04-19T05:40:03;29.83;;;21.77;;
14516;SDS011;7344;50.864;4.362;2023-04-19T05:42:29;26.03;;;20.63;;
14516;SDS011;7344;50.864;4.362;2023-04-19T05:44:55;27.07;;;20.77;;
14516;SDS011;7344;50.864;4.362;2023-04-19T05:47:21;27.20;;;21.67;;
14516;SDS011;7344;50.864;4.362;2023-04-19T05:49:46;25.10;;;21.73;;
14516;SDS011;7344;50.864;4.362;2023-04-19T05:52:12;24.67;;;20.37;;
14516;SDS011;7344;50.864;4.362;2023-04-19T05:54:38;27.43;;;21.87;;
14516;SDS011;7344;50.864;4.362;2023-04-19T05:57:03;27.57;;;22.73;;
14516;SDS011;7344;50.864;4.362;2023-04-19T05:59:29;24.67;;;22.03;;
14516;SDS011;7344;50.864;4.362;2023-04-19T06:01:54;29.23;;;21.97;;
14516;SDS011;7344;50.864;4.362;2023-04-19T06:04:20;30.43;;;21.97;;
14516;SDS011;7344;50.864;4.362;2023-04-19T06:06:46;28.30;;;22.70;;
14516;SDS011;7344;50.864;4.362;2023-04-19T06:09:12;31.50;;;22.67;;
14516;SDS011;7344;50.864;4.362;2023-04-19T06:11:42;25.37;;;19.80;;
14516;SDS011;7344;50.864;4.362;2023-04-19T06:14:09;27.63;;;21.93;;
14516;SDS011;7344;50.864;4.362;2023-04-19T06:16:35;32.73;;;23.77;;
14516;SDS011;7344;50.864;4.362;2023-04-19T06:19:00;30.60;;;23.60;;
14516;SDS011;7344;50.864;4.362;2023-04-19T06:21:28;31.57;;;24.23;;
14516;SDS011;7344;50.864;4.362;2023-04-19T06:23:55;32.27;;;23.43;;
14516;SDS011;7344;50.864;4.362;2023-04-19T06:26:20;29.37;;;21.67;;
14516;SDS011;7344;50.864;4.362;2023-04-19T06:28:46;28.07;;;23.30;;
14516;SDS011;7344;50.864;4.362;2023-04-19T06:31:14;31.37;;;23.53;;
14516;SDS011;7344;50.864;4.362;2023-04-19T06:33:40;28.67;;;23.37;;
14516;SDS011;7344;50.864;4.362;2023-04-19T06:36:08;28.57;;;21.50;;
14516;SDS011;7344;50.864;4.362;2023-04-19T06:38:34;27.73;;;21.97;;
14516;SDS011;7344;50.864;4.362;2023-04-19T06:41:03;28.27;;;21.47;;
14516;SDS011;7344;50.864;4.362;2023-04-19T06:43:29;30.90;;;22.33;;
14516;SDS011;7344;50.864;4.362;2023-04-19T06:45:58;30.10;;;22.20;;
14516;SDS011;7344;50.864;4.362;2023-04-19T06:48:24;29.50;;;22.60;;
14516;SDS011;7344;50.864;4.362;2023-04-19T06:50:53;28.27;;;21.37;;
14516;SDS011;7344;50.864;4.362;2023-04-19T06:53:19;26.97;;;20.77;;
14516;SDS011;7344;50.864;4.362;2023-04-19T06:55:44;24.27;;;20.07;;
14516;SDS011;7344;50.864;4.362;2023-04-19T06:58:10;25.97;;;21.10;;
14516;SDS011;7344;50.864;4.362;2023-04-19T07:00:36;29.17;;;21.70;;
14516;SDS011;7344;50.864;4.362;2023-04-19T07:03:04;25.47;;;19.00;;
14516;SDS011;7344;50.864;4.362;2023-04-19T07:05:30;25.57;;;20.67;;
14516;SDS011;7344;50.864;4.362;2023-04-19T07:07:56;24.60;;;20.17;;
14516;SDS011;7344;50.864;4.362;2023-04-19T07:10:22;23.83;;;19.93;;
14516;SDS011;7344;50.864;4.362;2023-04-19T07:12:51;26.10;;;19.90;;
14516;SDS011;7344;50.864;4.362;2023-04-19T07:15:16;24.80;;;19.63;;
14516;SDS011;7344;50.864;4.362;2023-04-19T07:17:42;23.43;;;19.60;;
14516;SDS011;7344;50.864;4.362;2023-04-19T07:20:08;24.73;;;19.10;;
14516;SDS011;7344;50.864;4.362;2023-04-19T07:22:33;23.30;;;17.97;;
14516;SDS011;7344;50.864;4.362;2023-04-19T07:24:59;20.53;;;16.90;;
14516;SDS011;7344;50.864;4.362;2023-04-19T07:27:25;22.13;;;17.03;;
14516;SDS011;7344;50.864;4.362;2023-04-19T07:29:51;22.87;;;19.00;;
14516;SDS011;7344;50.864;4.362;2023-04-19T07:32:17;23.07;;;17.87;;
14516;SDS011;7344;50.864;4.362;2023-04-19T07:34:43;22.57;;;17.67;;
14516;SDS011;7344;50.864;4.362;2023-04-19T07:37:09;20.63;;;18.40;;
14516;SDS011;7344;50.864;4.362;2023-04-19T07:39:41;22.80;;;18.33;;
14516;SDS011;7344;50.864;4.362;2023-04-19T07:42:06;18.97;;;14.80;;
14516;SDS011;7344;50.864;4.362;2023-04-19T07:44:32;20.53;;;16.67;;
14516;SDS011;7344;50.864;4.362;2023-04-19T07:46:58;19.73;;;17.17;;
14516;SDS011;7344;50.864;4.362;2023-04-19T07:49:23;18.97;;;15.77;;
14516;SDS011;7344;50.864;4.362;2023-04-19T07:51:49;19.77;;;15.17;;
14516;SDS011;7344;50.864;4.362;2023-04-19T07:54:15;19.92;;;15.75;;
14516;SDS011;7344;50.864;4.362;2023-04-19T07:56:41;17.35;;;15.55;;
14516;SDS011;7344;50.864;4.362;2023-04-19T07:59:07;17.57;;;14.77;;
14516;SDS011;7344;50.864;4.362;2023-04-19T08:01:33;18.30;;;16.33;;
14516;SDS011;7344;50.864;4.362;2023-04-19T08:03:58;18.55;;;15.93;;
14516;SDS011;7344;50.864;4.362;2023-04-19T08:06:27;16.35;;;14.73;;
14516;SDS011;7344;50.864;4.362;2023-04-19T08:08:54;16.33;;;14.52;;
14516;SDS011;7344;50.864;4.362;2023-04-19T08:11:20;15.15;;;13.68;;
14516;SDS011;7344;50.864;4.362;2023-04-19T08:13:46;15.68;;;14.10;;
14516;SDS011;7344;50.864;4.362;2023-04-19T08:16:11;15.35;;;12.88;;
14516;SDS011;7344;50.864;4.362;2023-04-19T08:18:37;17.58;;;14.90;;
14516;SDS011;7344;50.864;4.362;2023-04-19T08:21:03;17.70;;;15.05;;
14516;SDS011;7344;50.864;4.362;2023-04-19T08:23:28;16.95;;;13.77;;
14516;SDS011;7344;50.864;4.362;2023-04-19T08:25:54;14.57;;;12.98;;
14516;SDS011;7344;50.864;4.362;2023-04-19T08:28:20;14.85;;;13.43;;
14516;SDS011;7344;50.864;4.362;2023-04-19T08:30:48;15.63;;;12.77;;
14516;SDS011;7344;50.864;4.362;2023-04-19T08:33:14;13.55;;;11.65;;
14516;SDS011;7344;50.864;4.362;2023-04-19T08:35:40;14.10;;;12.20;;
14516;SDS011;7344;50.864;4.362;2023-04-19T08:38:06;15.93;;;14.23;;
14516;SDS011;7344;50.864;4.362;2023-04-19T08:40:32;16.73;;;12.67;;
14516;SDS011;7344;50.864;4.362;2023-04-19T08:43:07;14.95;;;13.35;;
14516;SDS011;7344;50.864;4.362;2023-04-19T08:45:33;16.00;;;12.75;;
14516;SDS011;7344;50.864;4.362;2023-04-19T08:48:00;14.90;;;13.30;;
14516;SDS011;7344;50.864;4.362;2023-04-19T08:50:27;15.57;;;13.20;;
14516;SDS011;7344;50.864;4.362;2023-04-19T08:52:53;17.33;;;13.85;;
14516;SDS011;7344;50.864;4.362;2023-04-19T08:55:18;15.05;;;13.23;;
14516;SDS011;7344;50.864;4.362;2023-04-19T08:57:44;14.48;;;11.90;;
14516;SDS011;7344;50.864;4.362;2023-04-19T09:00:10;14.90;;;11.70;;
14516;SDS011;7344;50.864;4.362;2023-04-19T09:02:49;13.27;;;11.98;;
14516;SDS011;7344;50.864;4.362;2023-04-19T09:05:15;16.98;;;13.63;;
14516;SDS011;7344;50.864;4.362;2023-04-19T09:07:42;14.65;;;12.52;;
14516;SDS011;7344;50.864;4.362;2023-04-19T09:10:13;12.55;;;11.32;;
14516;SDS011;7344;50.864;4.362;2023-04-19T09:13:00;14.13;;;12.68;;
14516;SDS011;7344;50.864;4.362;2023-04-19T09:15:39;13.00;;;11.73;;
14516;SDS011;7344;50.864;4.362;2023-04-19T09:18:08;12.73;;;11.38;;
14516;SDS011;7344;50.864;4.362;2023-04-19T09:20:38;15.57;;;12.75;;
14516;SDS011;7344;50.864;4.362;2023-04-19T09:23:06;12.38;;;11.10;;
14516;SDS011;7344;50.864;4.362;2023-04-19T09:25:33;13.35;;;11.77;;
14516;SDS011;7344;50.864;4.362;2023-04-19T09:28:12;12.43;;;10.88;;
14516;SDS011;7344;50.864;4.362;2023-04-19T09:30:41;13.00;;;11.40;;
14516;SDS011;7344;50.864;4.362;2023-04-19T09:33:07;12.80;;;11.50;;
14516;SDS011;7344;50.864;4.362;2023-04-19T09:35:39;12.25;;;10.77;;
14516;SDS011;7344;50.864;4.362;2023-04-19T09:38:06;12.52;;;10.80;;
14516;SDS011;7344;50.864;4.362;2023-04-19T09:40:35;11.40;;;10.40;;
14516;SDS011;7344;50.864;4.362;2023-04-19T09:43:01;10.40;;;9.30;;
14516;SDS011;7344;50.864;4.362;2023-04-19T09:45:28;12.25;;;11.05;;
14516;SDS011;7344;50.864;4.362;2023-04-19T09:48:10;13.18;;;11.77;;
14516;SDS011;7344;50.864;4.362;2023-04-19T09:50:52;11.82;;;10.70;;
14516;SDS011;7344;50.864;4.362;2023-04-19T09:53:19;13.43;;;10.55;;
14516;SDS011;7344;50.864;4.362;2023-04-19T09:55:45;10.18;;;9.38;;
14516;SDS011;7344;50.864;4.362;2023-04-19T09:58:12;11.80;;;10.60;;
14516;SDS011;7344;50.864;4.362;2023-04-19T10:00:39;12.27;;;11.02;;
14516;SDS011;7344;50.864;4.362;2023-04-19T10:03:06;10.13;;;9.13;;
14516;SDS011;7344;50.864;4.362;2023-04-19T10:05:35;11.13;;;10.23;;
14516;SDS011;7344;50.864;4.362;2023-04-19T10:08:03;10.73;;;9.70;;
14516;SDS011;7344;50.864;4.362;2023-04-19T10:10:35;13.33;;;9.13;;
14516;SDS011;7344;50.864;4.362;2023-04-19T10:13:06;11.85;;;10.77;;
14516;SDS011;7344;50.864;4.362;2023-04-19T10:15:36;9.80;;;9.00;;
14516;SDS011;7344;50.864;4.362;2023-04-19T10:18:03;10.77;;;9.70;;
14516;SDS011;7344;50.864;4.362;2023-04-19T10:20:31;9.50;;;8.60;;
14516;SDS011;7344;50.864;4.362;2023-04-19T10:23:06;10.93;;;9.88;;
14516;SDS011;7344;50.864;4.362;2023-04-19T10:25:36;10.30;;;9.50;;
14516;SDS011;7344;50.864;4.362;2023-04-19T10:28:03;10.20;;;9.38;;
14516;SDS011;7344;50.864;4.362;2023-04-19T10:30:28;10.38;;;9.27;;
14516;SDS011;7344;50.864;4.362;2023-04-19T10:32:55;10.15;;;9.18;;
14516;SDS011;7344;50.864;4.362;2023-04-19T10:35:27;13.43;;;9.35;;
14516;SDS011;7344;50.864;4.362;2023-04-19T10:38:11;10.57;;;9.68;;
14516;SDS011;7344;50.864;4.362;2023-04-19T10:40:59;9.70;;;8.65;;
14516;SDS011;7344;50.864;4.362;2023-04-19T10:43:26;10.10;;;9.30;;
14516;SDS011;7344;50.864;4.362;2023-04-19T10:45:57;11.55;;;10.15;;
14516;SDS011;7344;50.864;4.362;2023-04-19T10:48:30;9.90;;;9.02;;
14516;SDS011;7344;50.864;4.362;2023-04-19T10:53:44;7.22;;;6.53;;
14516;SDS011;7344;50.864;4.362;2023-04-19T10:56:15;9.07;;;8.18;;
14516;SDS011;7344;50.864;4.362;2023-04-19T11:01:52;9.05;;;8.15;;
14516;SDS011;7344;50.864;4.362;2023-04-19T11:04:23;9.82;;;8.25;;
14516;SDS011;7344;50.864;4.362;2023-04-19T11:06:59;8.10;;;7.28;;
14516;SDS011;7344;50.864;4.362;2023-04-19T11:12:14;7.33;;;6.63;;
14516;SDS011;7344;50.864;4.362;2023-04-19T11:14:47;10.27;;;8.13;;
14516;SDS011;7344;50.864;4.362;2023-04-19T11:17:19;8.32;;;7.53;;
14516;SDS011;7344;50.864;4.362;2023-04-19T11:19:55;8.65;;;7.90;;
14516;SDS011;7344;50.864;4.362;2023-04-19T11:22:36;9.38;;;7.82;;
14516;SDS011;7344;50.864;4.362;2023-04-19T11:25:13;8.93;;;7.63;;
14516;SDS011;7344;50.864;4.362;2023-04-19T11:27:54;9.23;;;8.27;;
14516;SDS011;7344;50.864;4.362;2023-04-19T11:30:27;8.30;;;7.60;;
14516;SDS011;7344;50.864;4.362;2023-04-19T11:32:54;8.00;;;7.30;;
14516;SDS011;7344;50.864;4.362;2023-04-19T11:35:24;8.10;;;7.30;;
14516;SDS011;7344;50.864;4.362;2023-04-19T11:37:52;9.13;;;8.20;;
14516;SDS011;7344;50.864;4.362;2023-04-19T11:40:19;8.75;;;7.07;;
14516;SDS011;7344;50.864;4.362;2023-04-19T11:42:45;8.83;;;8.10;;
14516;SDS011;7344;50.864;4.362;2023-04-19T11:45:26;9.97;;;8.70;;
14516;SDS011;7344;50.864;4.362;2023-04-19T11:47:56;9.93;;;8.48;;
14516;SDS011;7344;50.864;4.362;2023-04-19T11:50:29;9.57;;;8.60;;
14516;SDS011;7344;50.864;4.362;2023-04-19T11:53:16;13.70;;;9.32;;
14516;SDS011;7344;50.864;4.362;2023-04-19T11:55:53;9.43;;;7.90;;
14516;SDS011;7344;50.864;4.362;2023-04-19T11:58:37;9.77;;;8.77;;
14516;SDS011;7344;50.864;4.362;2023-04-19T12:01:14;11.23;;;9.97;;
14516;SDS011;7344;50.864;4.362;2023-04-19T12:03:43;10.17;;;9.00;;
14516;SDS011;7344;50.864;4.362;2023-04-19T12:06:21;10.10;;;9.00;;
14516;SDS011;7344;50.864;4.362;2023-04-19T12:08:52;11.27;;;9.20;;
14516;SDS011;7344;50.864;4.362;2023-04-19T12:11:20;12.87;;;9.57;;
14516;SDS011;7344;50.864;4.362;2023-04-19T12:13:54;8.77;;;7.97;;
14516;SDS011;7344;50.864;4.362;2023-04-19T12:16:35;9.30;;;8.40;;
14516;SDS011;7344;50.864;4.362;2023-04-19T12:21:41;11.83;;;8.10;;
14516;SDS011;7344;50.864;4.362;2023-04-19T12:24:07;11.53;;;8.73;;
14516;SDS011;7344;50.864;4.362;2023-04-19T12:26:33;11.10;;;7.53;;
14516;SDS011;7344;50.864;4.362;2023-04-19T12:28:59;8.93;;;7.93;;
14516;SDS011;7344;50.864;4.362;2023-04-19T12:31:31;8.87;;;7.40;;
14516;SDS011;7344;50.864;4.362;2023-04-19T12:33:57;8.10;;;7.30;;
14516;SDS011;7344;50.864;4.362;2023-04-19T12:36:23;6.93;;;6.23;;
14516;SDS011;7344;50.864;4.362;2023-04-19T12:38:49;9.27;;;7.23;;
14516;SDS011;7344;50.864;4.362;2023-04-19T12:41:14;8.30;;;6.00;;
14516;SDS011;7344;50.864;4.362;2023-04-19T12:43:43;8.57;;;7.40;;
14516;SDS011;7344;50.864;4.362;2023-04-19T12:46:08;12.77;;;7.70;;
14516;SDS011;7344;50.864;4.362;2023-04-19T12:48:34;8.93;;;6.00;;
14516;SDS011;7344;50.864;4.362;2023-04-19T12:51:00;8.63;;;6.60;;
14516;SDS011;7344;50.864;4.362;2023-04-19T12:53:25;9.23;;;6.73;;
14516;SDS011;7344;50.864;4.362;2023-04-19T12:55:51;7.90;;;6.93;;
14516;SDS011;7344;50.864;4.362;2023-04-19T12:58:16;8.93;;;7.10;;
14516;SDS011;7344;50.864;4.362;2023-04-19T13:00:42;7.60;;;5.73;;
14516;SDS011;7344;50.864;4.362;2023-04-19T13:03:08;12.13;;;6.70;;
14516;SDS011;7344;50.864;4.362;2023-04-19T13:05:36;11.67;;;6.60;;
14516;SDS011;7344;50.864;4.362;2023-04-19T13:08:02;8.17;;;5.87;;
14516;SDS011;7344;50.864;4.362;2023-04-19T13:10:27;7.33;;;5.80;;
14516;SDS011;7344;50.864;4.362;2023-04-19T13:12:53;8.80;;;6.27;;
14516;SDS011;7344;50.864;4.362;2023-04-19T13:15:19;6.03;;;5.43;;
14516;SDS011;7344;50.864;4.362;2023-04-19T13:17:44;9.20;;;5.47;;
14516;SDS011;7344;50.864;4.362;2023-04-19T13:20:10;10.57;;;6.60;;
14516;SDS011;7344;50.864;4.362;2023-04-19T13:22:36;9.93;;;6.60;;
14516;SDS011;7344;50.864;4.362;2023-04-19T13:25:02;5.37;;;4.87;;
14516;SDS011;7344;50.864;4.362;2023-04-19T13:27:28;6.50;;;5.33;;
14516;SDS011;7344;50.864;4.362;2023-04-19T13:29:54;7.03;;;5.53;;
14516;SDS011;7344;50.864;4.362;2023-04-19T13:32:20;5.47;;;5.03;;
14516;SDS011;7344;50.864;4.362;2023-04-19T13:34:46;5.00;;;4.47;;
14516;SDS011;7344;50.864;4.362;2023-04-19T13:37:12;5.83;;;4.53;;
14516;SDS011;7344;50.864;4.362;2023-04-19T13:39:38;5.27;;;4.70;;
14516;SDS011;7344;50.864;4.362;2023-04-19T13:42:10;6.90;;;5.17;;
14516;SDS011;7344;50.864;4.362;2023-04-19T13:44:36;6.13;;;4.77;;
14516;SDS011;7344;50.864;4.362;2023-04-19T13:47:01;4.83;;;4.20;;
14516;SDS011;7344;50.864;4.362;2023-04-19T13:49:27;11.53;;;4.80;;
14516;SDS011;7344;50.864;4.362;2023-04-19T13:51:53;4.03;;;3.70;;
14516;SDS011;7344;50.864;4.362;2023-04-19T13:54:18;4.67;;;4.30;;
14516;SDS011;7344;50.864;4.362;2023-04-19T13:56:45;4.50;;;4.10;;
14516;SDS011;7344;50.864;4.362;2023-04-19T13:59:10;4.80;;;4.37;;
14516;SDS011;7344;50.864;4.362;2023-04-19T14:01:39;3.70;;;3.40;;
14516;SDS011;7344;50.864;4.362;2023-04-19T14:04:05;7.37;;;4.50;;
14516;SDS011;7344;50.864;4.362;2023-04-19T14:06:31;4.57;;;4.17;;
14516;SDS011;7344;50.864;4.362;2023-04-19T14:08:57;7.10;;;4.10;;
14516;SDS011;7344;50.864;4.362;2023-04-19T14:11:24;3.83;;;3.53;;
14516;SDS011;7344;50.864;4.362;2023-04-19T14:13:50;4.90;;;3.70;;
14516;SDS011;7344;50.864;4.362;2023-04-19T14:16:17;5.13;;;3.90;;
14516;SDS011;7344;50.864;4.362;2023-04-19T14:18:42;7.73;;;4.30;;
14516;SDS011;7344;50.864;4.362;2023-04-19T14:21:11;8.03;;;4.00;;
14516;SDS011;7344;50.864;4.362;2023-04-19T14:23:36;4.70;;;4.20;;
14516;SDS011;7344;50.864;4.362;2023-04-19T14:26:02;8.50;;;4.20;;
14516;SDS011;7344;50.864;4.362;2023-04-19T14:28:28;5.33;;;3.43;;
14516;SDS011;7344;50.864;4.362;2023-04-19T14:30:56;4.63;;;4.23;;
14516;SDS011;7344;50.864;4.362;2023-04-19T14:33:22;7.63;;;3.10;;
14516;SDS011;7344;50.864;4.362;2023-04-19T14:35:48;13.77;;;3.30;;
14516;SDS011;7344;50.864;4.362;2023-04-19T14:38:13;3.70;;;3.13;;
14516;SDS011;7344;50.864;4.362;2023-04-19T14:40:39;4.00;;;2.53;;
14516;SDS011;7344;50.864;4.362;2023-04-19T14:43:05;2.63;;;2.43;;
14516;SDS011;7344;50.864;4.362;2023-04-19T14:45:33;2.67;;;2.20;;
14516;SDS011;7344;50.864;4.362;2023-04-19T14:47:59;3.40;;;3.10;;
14516;SDS011;7344;50.864;4.362;2023-04-19T14:50:27;6.05;;;3.40;;
14516;SDS011;7344;50.864;4.362;2023-04-19T14:52:53;4.67;;;3.23;;